sensor_id;sensor_type;location;lat;lon;timestamp;P1;durP1;ratioP1;P2;durP2;ratioP2
78453;SDS011;67750;55.832;49.124;2023-06-22T00:01:15;2.83;;;1.37;;
78453;SDS011;67750;55.832;49.124;2023-06-22T00:03:45;2.42;;;1.27;;
78453;SDS011;67750;55.832;49.124;2023-06-22T00:06:14;3.00;;;1.30;;
78453;SDS011;67750;55.832;49.124;2023-06-22T00:08:44;3.40;;;1.12;;
78453;SDS011;67750;55.832;49.124;2023-06-22T00:11:13;3.95;;;1.30;;
78453;SDS011;67750;55.832;49.124;2023-06-22T00:13:44;6.42;;;1.42;;
78453;SDS011;67750;55.832;49.124;2023-06-22T00:16:14;3.92;;;1.80;;
78453;SDS011;67750;55.832;49.124;2023-06-22T00:18:44;2.92;;;1.10;;
78453;SDS011;67750;55.832;49.124;2023-06-22T00:24:04;2.08;;;1.05;;
78453;SDS011;67750;55.832;49.124;2023-06-22T00:26:34;2.33;;;1.20;;
78453;SDS011;67750;55.832;49.124;2023-06-22T00:29:05;3.52;;;1.27;;
78453;SDS011;67750;55.832;49.124;2023-06-22T00:31:34;2.95;;;1.20;;
78453;SDS011;67750;55.832;49.124;2023-06-22T00:34:03;2.77;;;1.50;;
78453;SDS011;67750;55.832;49.124;2023-06-22T00:36:35;3.95;;;1.20;;
78453;SDS011;67750;55.832;49.124;2023-06-22T00:39:06;2.25;;;1.15;;
78453;SDS011;67750;55.832;49.124;2023-06-22T00:41:36;2.50;;;1.10;;
78453;SDS011;67750;55.832;49.124;2023-06-22T00:44:06;2.87;;;1.50;;
78453;SDS011;67750;55.832;49.124;2023-06-22T00:46:35;4.95;;;1.45;;
78453;SDS011;67750;55.832;49.124;2023-06-22T00:49:05;4.35;;;1.50;;
78453;SDS011;67750;55.832;49.124;2023-06-22T00:51:35;2.98;;;1.30;;
78453;SDS011;67750;55.832;49.124;2023-06-22T00:54:05;4.87;;;1.27;;
78453;SDS011;67750;55.832;49.124;2023-06-22T00:56:34;2.98;;;1.40;;
78453;SDS011;67750;55.832;49.124;2023-06-22T00:59:04;2.80;;;1.32;;
78453;SDS011;67750;55.832;49.124;2023-06-22T01:01:35;2.90;;;1.55;;
78453;SDS011;67750;55.832;49.124;2023-06-22T01:06:38;2.47;;;1.05;;
78453;SDS011;67750;55.832;49.124;2023-06-22T01:12:00;3.70;;;1.52;;
78453;SDS011;67750;55.832;49.124;2023-06-22T01:14:34;2.52;;;1.20;;
78453;SDS011;67750;55.832;49.124;2023-06-22T01:17:02;4.78;;;1.90;;
78453;SDS011;67750;55.832;49.124;2023-06-22T01:20:03;4.20;;;1.55;;
78453;SDS011;67750;55.832;49.124;2023-06-22T01:22:04;6.28;;;2.60;;
78453;SDS011;67750;55.832;49.124;2023-06-22T01:27:28;4.45;;;2.00;;
78453;SDS011;67750;55.832;49.124;2023-06-22T01:29:57;4.12;;;2.10;;
78453;SDS011;67750;55.832;49.124;2023-06-22T01:35:17;4.58;;;2.42;;
78453;SDS011;67750;55.832;49.124;2023-06-22T01:37:47;3.65;;;2.17;;
78453;SDS011;67750;55.832;49.124;2023-06-22T01:42:47;3.40;;;1.52;;
78453;SDS011;67750;55.832;49.124;2023-06-22T01:45:17;2.87;;;1.50;;
78453;SDS011;67750;55.832;49.124;2023-06-22T01:47:47;4.75;;;1.80;;
78453;SDS011;67750;55.832;49.124;2023-06-22T01:50:17;3.87;;;1.87;;
78453;SDS011;67750;55.832;49.124;2023-06-22T01:52:47;3.02;;;1.52;;
78453;SDS011;67750;55.832;49.124;2023-06-22T01:55:16;4.50;;;2.20;;
78453;SDS011;67750;55.832;49.124;2023-06-22T02:00:18;6.25;;;2.50;;
78453;SDS011;67750;55.832;49.124;2023-06-22T02:02:52;5.60;;;2.80;;
78453;SDS011;67750;55.832;49.124;2023-06-22T02:05:20;5.53;;;2.30;;
78453;SDS011;67750;55.832;49.124;2023-06-22T02:10:42;4.40;;;2.22;;
78453;SDS011;67750;55.832;49.124;2023-06-22T02:13:14;4.50;;;2.25;;
78453;SDS011;67750;55.832;49.124;2023-06-22T02:15:45;4.17;;;2.00;;
78453;SDS011;67750;55.832;49.124;2023-06-22T02:18:15;6.12;;;1.90;;
78453;SDS011;67750;55.832;49.124;2023-06-22T02:20:45;3.35;;;1.60;;
78453;SDS011;67750;55.832;49.124;2023-06-22T02:23:14;3.90;;;1.67;;
78453;SDS011;67750;55.832;49.124;2023-06-22T02:25:44;4.53;;;1.67;;
78453;SDS011;67750;55.832;49.124;2023-06-22T02:28:14;4.20;;;1.95;;
78453;SDS011;67750;55.832;49.124;2023-06-22T02:30:44;4.03;;;1.47;;
78453;SDS011;67750;55.832;49.124;2023-06-22T02:33:14;2.60;;;1.35;;
78453;SDS011;67750;55.832;49.124;2023-06-22T02:35:45;3.83;;;1.60;;
78453;SDS011;67750;55.832;49.124;2023-06-22T02:38:16;4.53;;;1.77;;
78453;SDS011;67750;55.832;49.124;2023-06-22T02:40:46;3.92;;;1.70;;
78453;SDS011;67750;55.832;49.124;2023-06-22T02:43:17;3.30;;;1.40;;
78453;SDS011;67750;55.832;49.124;2023-06-22T02:45:46;4.83;;;1.70;;
78453;SDS011;67750;55.832;49.124;2023-06-22T02:48:16;2.80;;;1.60;;
78453;SDS011;67750;55.832;49.124;2023-06-22T02:50:45;2.55;;;1.32;;
78453;SDS011;67750;55.832;49.124;2023-06-22T02:53:15;4.17;;;1.80;;
78453;SDS011;67750;55.832;49.124;2023-06-22T02:55:46;3.37;;;1.30;;
78453;SDS011;67750;55.832;49.124;2023-06-22T02:58:15;3.25;;;1.65;;
78453;SDS011;67750;55.832;49.124;2023-06-22T03:00:45;3.60;;;1.67;;
78453;SDS011;67750;55.832;49.124;2023-06-22T03:03:14;2.90;;;1.37;;
78453;SDS011;67750;55.832;49.124;2023-06-22T03:05:44;3.70;;;1.85;;
78453;SDS011;67750;55.832;49.124;2023-06-22T03:08:14;2.58;;;1.60;;
78453;SDS011;67750;55.832;49.124;2023-06-22T03:10:43;4.70;;;1.90;;
78453;SDS011;67750;55.832;49.124;2023-06-22T03:13:13;2.70;;;1.62;;
78453;SDS011;67750;55.832;49.124;2023-06-22T03:15:43;3.35;;;1.80;;
78453;SDS011;67750;55.832;49.124;2023-06-22T03:18:13;5.00;;;2.00;;
78453;SDS011;67750;55.832;49.124;2023-06-22T03:20:42;4.45;;;1.82;;
78453;SDS011;67750;55.832;49.124;2023-06-22T03:23:12;5.78;;;2.10;;
78453;SDS011;67750;55.832;49.124;2023-06-22T03:25:42;5.03;;;2.30;;
78453;SDS011;67750;55.832;49.124;2023-06-22T03:28:13;5.42;;;2.87;;
78453;SDS011;67750;55.832;49.124;2023-06-22T03:30:43;6.62;;;3.65;;
78453;SDS011;67750;55.832;49.124;2023-06-22T03:33:15;7.97;;;3.22;;
78453;SDS011;67750;55.832;49.124;2023-06-22T03:36:04;7.65;;;3.67;;
78453;SDS011;67750;55.832;49.124;2023-06-22T03:38:33;5.37;;;2.10;;
78453;SDS011;67750;55.832;49.124;2023-06-22T03:41:03;6.22;;;1.98;;
78453;SDS011;67750;55.832;49.124;2023-06-22T03:43:33;5.92;;;2.25;;
78453;SDS011;67750;55.832;49.124;2023-06-22T03:46:04;5.85;;;2.12;;
78453;SDS011;67750;55.832;49.124;2023-06-22T03:48:33;4.90;;;2.08;;
78453;SDS011;67750;55.832;49.124;2023-06-22T03:51:03;5.72;;;2.10;;
78453;SDS011;67750;55.832;49.124;2023-06-22T03:53:33;4.12;;;1.65;;
78453;SDS011;67750;55.832;49.124;2023-06-22T03:56:02;6.22;;;2.30;;
78453;SDS011;67750;55.832;49.124;2023-06-22T03:58:32;4.83;;;2.37;;
78453;SDS011;67750;55.832;49.124;2023-06-22T04:01:03;4.55;;;2.00;;
78453;SDS011;67750;55.832;49.124;2023-06-22T04:03:33;5.20;;;2.12;;
78453;SDS011;67750;55.832;49.124;2023-06-22T04:06:02;6.15;;;1.87;;
78453;SDS011;67750;55.832;49.124;2023-06-22T04:08:32;6.40;;;2.15;;
78453;SDS011;67750;55.832;49.124;2023-06-22T04:11:01;4.47;;;1.90;;
78453;SDS011;67750;55.832;49.124;2023-06-22T04:13:32;3.67;;;1.92;;
78453;SDS011;67750;55.832;49.124;2023-06-22T04:16:01;4.92;;;2.08;;
78453;SDS011;67750;55.832;49.124;2023-06-22T04:18:31;3.77;;;1.95;;
78453;SDS011;67750;55.832;49.124;2023-06-22T04:21:01;4.00;;;2.15;;
78453;SDS011;67750;55.832;49.124;2023-06-22T04:23:30;4.72;;;2.08;;
78453;SDS011;67750;55.832;49.124;2023-06-22T04:26:00;4.33;;;2.35;;
78453;SDS011;67750;55.832;49.124;2023-06-22T04:28:29;4.65;;;2.25;;
78453;SDS011;67750;55.832;49.124;2023-06-22T04:31:01;4.80;;;1.85;;
78453;SDS011;67750;55.832;49.124;2023-06-22T04:33:31;5.58;;;2.52;;
78453;SDS011;67750;55.832;49.124;2023-06-22T04:36:01;4.40;;;1.82;;
78453;SDS011;67750;55.832;49.124;2023-06-22T04:38:30;4.15;;;2.33;;
78453;SDS011;67750;55.832;49.124;2023-06-22T04:41:00;5.80;;;2.00;;
78453;SDS011;67750;55.832;49.124;2023-06-22T04:43:30;6.17;;;2.60;;
78453;SDS011;67750;55.832;49.124;2023-06-22T04:45:59;4.20;;;2.12;;
78453;SDS011;67750;55.832;49.124;2023-06-22T04:48:49;5.97;;;2.15;;
78453;SDS011;67750;55.832;49.124;2023-06-22T04:51:18;3.47;;;1.90;;
78453;SDS011;67750;55.832;49.124;2023-06-22T04:53:48;4.75;;;2.33;;
78453;SDS011;67750;55.832;49.124;2023-06-22T04:56:18;6.20;;;2.85;;
78453;SDS011;67750;55.832;49.124;2023-06-22T04:58:48;4.65;;;2.25;;
78453;SDS011;67750;55.832;49.124;2023-06-22T05:01:18;4.10;;;2.08;;
78453;SDS011;67750;55.832;49.124;2023-06-22T05:03:49;3.90;;;2.08;;
78453;SDS011;67750;55.832;49.124;2023-06-22T05:06:20;5.53;;;2.00;;
78453;SDS011;67750;55.832;49.124;2023-06-22T05:11:41;4.97;;;2.27;;
78453;SDS011;67750;55.832;49.124;2023-06-22T05:14:11;4.37;;;1.87;;
78453;SDS011;67750;55.832;49.124;2023-06-22T05:16:41;3.60;;;1.90;;
78453;SDS011;67750;55.832;49.124;2023-06-22T05:19:11;4.45;;;2.05;;
78453;SDS011;67750;55.832;49.124;2023-06-22T05:21:40;3.02;;;1.77;;
78453;SDS011;67750;55.832;49.124;2023-06-22T05:24:10;4.45;;;1.52;;
78453;SDS011;67750;55.832;49.124;2023-06-22T05:26:39;4.33;;;1.87;;
78453;SDS011;67750;55.832;49.124;2023-06-22T05:29:09;4.12;;;2.12;;
78453;SDS011;67750;55.832;49.124;2023-06-22T05:31:38;4.25;;;2.02;;
78453;SDS011;67750;55.832;49.124;2023-06-22T05:34:08;6.47;;;2.27;;
78453;SDS011;67750;55.832;49.124;2023-06-22T05:36:38;5.22;;;1.92;;
78453;SDS011;67750;55.832;49.124;2023-06-22T05:41:56;5.67;;;1.72;;
78453;SDS011;67750;55.832;49.124;2023-06-22T05:44:26;4.30;;;1.80;;
78453;SDS011;67750;55.832;49.124;2023-06-22T05:46:55;4.03;;;1.80;;
78453;SDS011;67750;55.832;49.124;2023-06-22T05:49:25;2.92;;;1.92;;
78453;SDS011;67750;55.832;49.124;2023-06-22T05:52:14;3.15;;;1.95;;
78453;SDS011;67750;55.832;49.124;2023-06-22T05:54:44;3.60;;;1.92;;
78453;SDS011;67750;55.832;49.124;2023-06-22T05:57:13;4.05;;;1.87;;
78453;SDS011;67750;55.832;49.124;2023-06-22T05:59:43;3.45;;;1.98;;
78453;SDS011;67750;55.832;49.124;2023-06-22T06:02:12;3.47;;;2.10;;
78453;SDS011;67750;55.832;49.124;2023-06-22T06:04:42;3.37;;;1.80;;
78453;SDS011;67750;55.832;49.124;2023-06-22T06:07:11;5.20;;;1.90;;
78453;SDS011;67750;55.832;49.124;2023-06-22T06:09:40;6.22;;;1.92;;
78453;SDS011;67750;55.832;49.124;2023-06-22T06:12:10;3.85;;;2.12;;
78453;SDS011;67750;55.832;49.124;2023-06-22T06:14:40;5.22;;;2.20;;
78453;SDS011;67750;55.832;49.124;2023-06-22T06:17:09;3.62;;;2.20;;
78453;SDS011;67750;55.832;49.124;2023-06-22T06:19:39;5.25;;;2.47;;
78453;SDS011;67750;55.832;49.124;2023-06-22T06:22:08;4.30;;;2.27;;
78453;SDS011;67750;55.832;49.124;2023-06-22T06:24:42;3.83;;;2.20;;
78453;SDS011;67750;55.832;49.124;2023-06-22T06:27:11;4.08;;;2.47;;
78453;SDS011;67750;55.832;49.124;2023-06-22T06:29:41;4.42;;;2.30;;
78453;SDS011;67750;55.832;49.124;2023-06-22T06:34:40;3.62;;;1.85;;
78453;SDS011;67750;55.832;49.124;2023-06-22T06:37:10;4.15;;;1.65;;
78453;SDS011;67750;55.832;49.124;2023-06-22T06:39:39;6.03;;;1.92;;
78453;SDS011;67750;55.832;49.124;2023-06-22T06:42:09;5.33;;;2.85;;
78453;SDS011;67750;55.832;49.124;2023-06-22T06:44:38;4.42;;;2.58;;
78453;SDS011;67750;55.832;49.124;2023-06-22T06:47:08;5.17;;;2.05;;
78453;SDS011;67750;55.832;49.124;2023-06-22T06:49:38;6.65;;;1.90;;
78453;SDS011;67750;55.832;49.124;2023-06-22T06:52:07;4.60;;;1.90;;
78453;SDS011;67750;55.832;49.124;2023-06-22T06:54:37;3.58;;;1.67;;
78453;SDS011;67750;55.832;49.124;2023-06-22T06:57:08;4.28;;;2.20;;
78453;SDS011;67750;55.832;49.124;2023-06-22T07:02:08;4.37;;;1.92;;
78453;SDS011;67750;55.832;49.124;2023-06-22T07:04:37;3.77;;;2.22;;
78453;SDS011;67750;55.832;49.124;2023-06-22T07:07:07;4.65;;;2.40;;
78453;SDS011;67750;55.832;49.124;2023-06-22T07:09:36;5.53;;;1.92;;
78453;SDS011;67750;55.832;49.124;2023-06-22T07:12:06;6.25;;;2.17;;
78453;SDS011;67750;55.832;49.124;2023-06-22T07:14:36;4.92;;;2.15;;
78453;SDS011;67750;55.832;49.124;2023-06-22T07:17:05;7.53;;;2.50;;
78453;SDS011;67750;55.832;49.124;2023-06-22T07:19:34;4.12;;;1.80;;
78453;SDS011;67750;55.832;49.124;2023-06-22T07:22:04;6.67;;;2.58;;
78453;SDS011;67750;55.832;49.124;2023-06-22T07:24:34;3.70;;;1.92;;
78453;SDS011;67750;55.832;49.124;2023-06-22T07:27:04;4.80;;;2.17;;
78453;SDS011;67750;55.832;49.124;2023-06-22T07:29:33;4.25;;;2.25;;
78453;SDS011;67750;55.832;49.124;2023-06-22T07:32:03;3.58;;;2.00;;
78453;SDS011;67750;55.832;49.124;2023-06-22T07:34:33;3.50;;;2.30;;
78453;SDS011;67750;55.832;49.124;2023-06-22T07:37:02;4.00;;;2.55;;
78453;SDS011;67750;55.832;49.124;2023-06-22T07:39:32;4.95;;;2.52;;
78453;SDS011;67750;55.832;49.124;2023-06-22T07:42:01;4.25;;;2.60;;
78453;SDS011;67750;55.832;49.124;2023-06-22T07:44:31;4.85;;;2.45;;
78453;SDS011;67750;55.832;49.124;2023-06-22T07:47:00;6.30;;;2.67;;
78453;SDS011;67750;55.832;49.124;2023-06-22T07:49:30;7.33;;;3.08;;
78453;SDS011;67750;55.832;49.124;2023-06-22T07:51:59;4.65;;;2.67;;
78453;SDS011;67750;55.832;49.124;2023-06-22T07:54:29;5.15;;;2.67;;
78453;SDS011;67750;55.832;49.124;2023-06-22T07:56:58;7.80;;;2.80;;
78453;SDS011;67750;55.832;49.124;2023-06-22T07:59:28;4.53;;;3.00;;
78453;SDS011;67750;55.832;49.124;2023-06-22T08:01:57;5.40;;;3.08;;
78453;SDS011;67750;55.832;49.124;2023-06-22T08:04:27;7.22;;;3.12;;
78453;SDS011;67750;55.832;49.124;2023-06-22T08:06:58;4.30;;;2.90;;
78453;SDS011;67750;55.832;49.124;2023-06-22T08:09:28;4.55;;;3.10;;
78453;SDS011;67750;55.832;49.124;2023-06-22T08:11:57;4.97;;;3.00;;
78453;SDS011;67750;55.832;49.124;2023-06-22T08:14:29;4.70;;;3.30;;
78453;SDS011;67750;55.832;49.124;2023-06-22T08:19:26;6.00;;;3.25;;
78453;SDS011;67750;55.832;49.124;2023-06-22T08:21:56;4.60;;;3.20;;
78453;SDS011;67750;55.832;49.124;2023-06-22T08:24:25;5.53;;;3.22;;
78453;SDS011;67750;55.832;49.124;2023-06-22T08:26:56;5.58;;;3.20;;
78453;SDS011;67750;55.832;49.124;2023-06-22T08:29:26;8.80;;;4.12;;
78453;SDS011;67750;55.832;49.124;2023-06-22T08:31:55;7.72;;;3.62;;
78453;SDS011;67750;55.832;49.124;2023-06-22T08:34:25;4.85;;;3.50;;
78453;SDS011;67750;55.832;49.124;2023-06-22T08:36:54;5.25;;;3.30;;
78453;SDS011;67750;55.832;49.124;2023-06-22T08:39:24;6.85;;;3.30;;
78453;SDS011;67750;55.832;49.124;2023-06-22T08:41:54;6.78;;;3.60;;
78453;SDS011;67750;55.832;49.124;2023-06-22T08:44:24;4.87;;;3.05;;
78453;SDS011;67750;55.832;49.124;2023-06-22T08:46:53;6.28;;;3.65;;
78453;SDS011;67750;55.832;49.124;2023-06-22T08:49:23;7.17;;;4.22;;
78453;SDS011;67750;55.832;49.124;2023-06-22T08:51:52;7.95;;;3.70;;
78453;SDS011;67750;55.832;49.124;2023-06-22T08:54:23;7.25;;;3.75;;
78453;SDS011;67750;55.832;49.124;2023-06-22T08:56:53;7.40;;;3.90;;
78453;SDS011;67750;55.832;49.124;2023-06-22T08:59:22;5.53;;;3.33;;
78453;SDS011;67750;55.832;49.124;2023-06-22T09:01:52;5.28;;;3.33;;
78453;SDS011;67750;55.832;49.124;2023-06-22T09:04:21;6.60;;;3.47;;
78453;SDS011;67750;55.832;49.124;2023-06-22T09:06:51;6.67;;;3.52;;
78453;SDS011;67750;55.832;49.124;2023-06-22T09:09:20;5.80;;;3.50;;
78453;SDS011;67750;55.832;49.124;2023-06-22T09:11:50;4.97;;;3.70;;
78453;SDS011;67750;55.832;49.124;2023-06-22T09:14:20;9.28;;;3.90;;
78453;SDS011;67750;55.832;49.124;2023-06-22T09:16:49;7.62;;;3.70;;
78453;SDS011;67750;55.832;49.124;2023-06-22T09:19:19;5.35;;;3.40;;
78453;SDS011;67750;55.832;49.124;2023-06-22T09:21:48;4.20;;;2.95;;
78453;SDS011;67750;55.832;49.124;2023-06-22T09:24:17;6.65;;;3.47;;
78453;SDS011;67750;55.832;49.124;2023-06-22T09:26:47;9.50;;;3.75;;
78453;SDS011;67750;55.832;49.124;2023-06-22T09:29:17;5.72;;;3.67;;
78453;SDS011;67750;55.832;49.124;2023-06-22T09:31:46;6.00;;;3.40;;
78453;SDS011;67750;55.832;49.124;2023-06-22T09:34:16;4.42;;;3.02;;
78453;SDS011;67750;55.832;49.124;2023-06-22T09:36:47;5.83;;;3.45;;
78453;SDS011;67750;55.832;49.124;2023-06-22T09:39:17;5.10;;;3.20;;
78453;SDS011;67750;55.832;49.124;2023-06-22T09:41:47;5.00;;;3.05;;
78453;SDS011;67750;55.832;49.124;2023-06-22T09:44:16;4.67;;;3.10;;
78453;SDS011;67750;55.832;49.124;2023-06-22T09:46:46;5.20;;;3.35;;
78453;SDS011;67750;55.832;49.124;2023-06-22T09:49:15;5.12;;;3.45;;
78453;SDS011;67750;55.832;49.124;2023-06-22T09:51:45;4.80;;;3.25;;
78453;SDS011;67750;55.832;49.124;2023-06-22T09:54:14;5.90;;;3.52;;
78453;SDS011;67750;55.832;49.124;2023-06-22T09:56:43;5.47;;;3.10;;
78453;SDS011;67750;55.832;49.124;2023-06-22T09:59:13;4.50;;;3.15;;
78453;SDS011;67750;55.832;49.124;2023-06-22T10:01:43;4.33;;;3.05;;
78453;SDS011;67750;55.832;49.124;2023-06-22T10:04:12;5.28;;;3.58;;
78453;SDS011;67750;55.832;49.124;2023-06-22T10:06:41;4.83;;;3.50;;
78453;SDS011;67750;55.832;49.124;2023-06-22T10:09:11;6.33;;;3.50;;
78453;SDS011;67750;55.832;49.124;2023-06-22T10:11:40;8.73;;;3.22;;
78453;SDS011;67750;55.832;49.124;2023-06-22T10:14:10;5.42;;;3.40;;
78453;SDS011;67750;55.832;49.124;2023-06-22T10:16:39;6.28;;;3.35;;
78453;SDS011;67750;55.832;49.124;2023-06-22T10:19:09;7.22;;;3.20;;
78453;SDS011;67750;55.832;49.124;2023-06-22T10:21:38;5.58;;;3.30;;
78453;SDS011;67750;55.832;49.124;2023-06-22T10:24:08;7.15;;;3.70;;
78453;SDS011;67750;55.832;49.124;2023-06-22T10:26:37;5.72;;;3.37;;
78453;SDS011;67750;55.832;49.124;2023-06-22T10:29:07;5.25;;;3.87;;
78453;SDS011;67750;55.832;49.124;2023-06-22T10:31:36;4.53;;;3.30;;
78453;SDS011;67750;55.832;49.124;2023-06-22T10:34:06;4.40;;;3.22;;
78453;SDS011;67750;55.832;49.124;2023-06-22T10:36:35;5.37;;;3.20;;
78453;SDS011;67750;55.832;49.124;2023-06-22T10:39:04;4.75;;;3.45;;
78453;SDS011;67750;55.832;49.124;2023-06-22T10:41:34;5.00;;;3.30;;
78453;SDS011;67750;55.832;49.124;2023-06-22T10:44:04;4.65;;;3.20;;
78453;SDS011;67750;55.832;49.124;2023-06-22T10:46:33;4.90;;;3.60;;
78453;SDS011;67750;55.832;49.124;2023-06-22T10:49:03;5.67;;;3.10;;
78453;SDS011;67750;55.832;49.124;2023-06-22T10:51:32;5.60;;;3.47;;
78453;SDS011;67750;55.832;49.124;2023-06-22T10:54:02;4.50;;;3.27;;
78453;SDS011;67750;55.832;49.124;2023-06-22T10:56:31;5.08;;;3.62;;
78453;SDS011;67750;55.832;49.124;2023-06-22T10:59:01;5.15;;;3.62;;
78453;SDS011;67750;55.832;49.124;2023-06-22T11:01:30;6.97;;;3.33;;
78453;SDS011;67750;55.832;49.124;2023-06-22T11:04:00;6.40;;;3.33;;
78453;SDS011;67750;55.832;49.124;2023-06-22T11:06:29;7.25;;;3.00;;
78453;SDS011;67750;55.832;49.124;2023-06-22T11:08:59;5.10;;;3.20;;
78453;SDS011;67750;55.832;49.124;2023-06-22T11:11:30;4.42;;;2.92;;
78453;SDS011;67750;55.832;49.124;2023-06-22T11:13:59;4.97;;;3.50;;
78453;SDS011;67750;55.832;49.124;2023-06-22T11:16:29;4.12;;;2.92;;
78453;SDS011;67750;55.832;49.124;2023-06-22T11:18:58;4.58;;;3.12;;
78453;SDS011;67750;55.832;49.124;2023-06-22T11:21:28;4.78;;;3.02;;
78453;SDS011;67750;55.832;49.124;2023-06-22T11:23:58;4.35;;;2.92;;
78453;SDS011;67750;55.832;49.124;2023-06-22T11:26:28;6.53;;;3.20;;
78453;SDS011;67750;55.832;49.124;2023-06-22T11:28:58;8.65;;;3.60;;
78453;SDS011;67750;55.832;49.124;2023-06-22T11:31:30;5.15;;;3.02;;
78453;SDS011;67750;55.832;49.124;2023-06-22T11:34:00;5.10;;;3.47;;
78453;SDS011;67750;55.832;49.124;2023-06-22T11:36:29;4.40;;;3.08;;
78453;SDS011;67750;55.832;49.124;2023-06-22T11:39:19;6.42;;;2.98;;
78453;SDS011;67750;55.832;49.124;2023-06-22T11:41:48;5.30;;;2.98;;
78453;SDS011;67750;55.832;49.124;2023-06-22T11:44:17;7.53;;;3.37;;
78453;SDS011;67750;55.832;49.124;2023-06-22T11:46:47;6.65;;;3.47;;
78453;SDS011;67750;55.832;49.124;2023-06-22T11:49:16;5.83;;;3.17;;
78453;SDS011;67750;55.832;49.124;2023-06-22T11:51:46;6.60;;;3.12;;
78453;SDS011;67750;55.832;49.124;2023-06-22T11:54:15;4.55;;;3.25;;
78453;SDS011;67750;55.832;49.124;2023-06-22T11:56:45;4.62;;;3.20;;
78453;SDS011;67750;55.832;49.124;2023-06-22T11:59:14;4.28;;;3.00;;
78453;SDS011;67750;55.832;49.124;2023-06-22T12:01:44;5.03;;;3.30;;
78453;SDS011;67750;55.832;49.124;2023-06-22T12:04:14;5.10;;;3.50;;
78453;SDS011;67750;55.832;49.124;2023-06-22T12:06:43;6.92;;;3.08;;
78453;SDS011;67750;55.832;49.124;2023-06-22T12:09:13;4.10;;;2.90;;
78453;SDS011;67750;55.832;49.124;2023-06-22T12:11:43;4.70;;;3.22;;
78453;SDS011;67750;55.832;49.124;2023-06-22T12:14:12;5.83;;;3.47;;
78453;SDS011;67750;55.832;49.124;2023-06-22T12:16:42;4.20;;;2.87;;
78453;SDS011;67750;55.832;49.124;2023-06-22T12:19:11;4.45;;;2.85;;
78453;SDS011;67750;55.832;49.124;2023-06-22T12:21:41;5.83;;;3.35;;
78453;SDS011;67750;55.832;49.124;2023-06-22T12:24:12;4.30;;;2.52;;
78453;SDS011;67750;55.832;49.124;2023-06-22T12:26:42;4.30;;;3.10;;
78453;SDS011;67750;55.832;49.124;2023-06-22T12:29:11;4.37;;;2.80;;
78453;SDS011;67750;55.832;49.124;2023-06-22T12:31:41;4.65;;;3.00;;
78453;SDS011;67750;55.832;49.124;2023-06-22T12:34:10;5.58;;;3.95;;
78453;SDS011;67750;55.832;49.124;2023-06-22T12:36:40;5.78;;;3.87;;
78453;SDS011;67750;55.832;49.124;2023-06-22T12:39:09;6.70;;;3.55;;
78453;SDS011;67750;55.832;49.124;2023-06-22T12:41:39;6.70;;;3.83;;
78453;SDS011;67750;55.832;49.124;2023-06-22T12:44:08;9.68;;;3.52;;
78453;SDS011;67750;55.832;49.124;2023-06-22T12:46:38;7.37;;;4.05;;
78453;SDS011;67750;55.832;49.124;2023-06-22T12:49:07;10.08;;;3.55;;
78453;SDS011;67750;55.832;49.124;2023-06-22T12:51:39;10.58;;;3.75;;
78453;SDS011;67750;55.832;49.124;2023-06-22T12:54:09;10.48;;;3.80;;
78453;SDS011;67750;55.832;49.124;2023-06-22T12:56:38;6.92;;;3.80;;
78453;SDS011;67750;55.832;49.124;2023-06-22T12:59:09;8.05;;;3.70;;
78453;SDS011;67750;55.832;49.124;2023-06-22T13:01:39;5.47;;;3.77;;
78453;SDS011;67750;55.832;49.124;2023-06-22T13:04:10;6.30;;;3.50;;
78453;SDS011;67750;55.832;49.124;2023-06-22T13:06:41;8.23;;;3.87;;
78453;SDS011;67750;55.832;49.124;2023-06-22T13:09:13;9.90;;;3.85;;
78453;SDS011;67750;55.832;49.124;2023-06-22T13:14:12;8.35;;;3.58;;
78453;SDS011;67750;55.832;49.124;2023-06-22T13:16:43;5.10;;;3.05;;
78453;SDS011;67750;55.832;49.124;2023-06-22T13:19:12;12.13;;;3.70;;
78453;SDS011;67750;55.832;49.124;2023-06-22T13:21:42;5.17;;;3.45;;
78453;SDS011;67750;55.832;49.124;2023-06-22T13:24:11;4.75;;;3.27;;
78453;SDS011;67750;55.832;49.124;2023-06-22T13:26:41;5.78;;;3.30;;
78453;SDS011;67750;55.832;49.124;2023-06-22T13:29:10;4.78;;;2.98;;
78453;SDS011;67750;55.832;49.124;2023-06-22T13:31:40;9.48;;;3.65;;
78453;SDS011;67750;55.832;49.124;2023-06-22T13:34:09;5.78;;;3.30;;
78453;SDS011;67750;55.832;49.124;2023-06-22T13:36:39;5.40;;;3.42;;
78453;SDS011;67750;55.832;49.124;2023-06-22T13:39:08;6.10;;;3.65;;
78453;SDS011;67750;55.832;49.124;2023-06-22T13:41:38;5.35;;;3.30;;
78453;SDS011;67750;55.832;49.124;2023-06-22T13:44:09;5.20;;;3.12;;
78453;SDS011;67750;55.832;49.124;2023-06-22T13:46:38;6.85;;;3.70;;
78453;SDS011;67750;55.832;49.124;2023-06-22T13:49:08;7.60;;;3.80;;
78453;SDS011;67750;55.832;49.124;2023-06-22T13:51:37;4.53;;;2.80;;
78453;SDS011;67750;55.832;49.124;2023-06-22T13:54:07;5.95;;;3.33;;
78453;SDS011;67750;55.832;49.124;2023-06-22T13:56:36;7.10;;;3.00;;
78453;SDS011;67750;55.832;49.124;2023-06-22T13:59:06;5.15;;;2.33;;
78453;SDS011;67750;55.832;49.124;2023-06-22T14:01:37;4.42;;;2.83;;
78453;SDS011;67750;55.832;49.124;2023-06-22T14:04:08;4.15;;;2.42;;
78453;SDS011;67750;55.832;49.124;2023-06-22T14:06:37;7.30;;;2.60;;
78453;SDS011;67750;55.832;49.124;2023-06-22T14:09:07;4.90;;;2.70;;
78453;SDS011;67750;55.832;49.124;2023-06-22T14:11:36;7.35;;;2.52;;
78453;SDS011;67750;55.832;49.124;2023-06-22T14:14:06;4.25;;;2.85;;
78453;SDS011;67750;55.832;49.124;2023-06-22T14:16:35;5.40;;;3.12;;
78453;SDS011;67750;55.832;49.124;2023-06-22T14:19:05;7.42;;;2.95;;
78453;SDS011;67750;55.832;49.124;2023-06-22T14:21:34;5.00;;;3.08;;
78453;SDS011;67750;55.832;49.124;2023-06-22T14:24:04;6.87;;;3.05;;
78453;SDS011;67750;55.832;49.124;2023-06-22T14:26:33;5.20;;;2.75;;
78453;SDS011;67750;55.832;49.124;2023-06-22T14:29:03;5.17;;;2.70;;
78453;SDS011;67750;55.832;49.124;2023-06-22T14:31:34;9.18;;;3.25;;
78453;SDS011;67750;55.832;49.124;2023-06-22T14:34:04;6.85;;;3.47;;
78453;SDS011;67750;55.832;49.124;2023-06-22T14:36:33;5.37;;;3.22;;
78453;SDS011;67750;55.832;49.124;2023-06-22T14:39:03;6.42;;;3.40;;
78453;SDS011;67750;55.832;49.124;2023-06-22T14:41:32;5.17;;;2.92;;
78453;SDS011;67750;55.832;49.124;2023-06-22T14:44:02;5.65;;;3.10;;
78453;SDS011;67750;55.832;49.124;2023-06-22T14:46:31;6.15;;;3.37;;
78453;SDS011;67750;55.832;49.124;2023-06-22T14:49:00;4.37;;;2.77;;
78453;SDS011;67750;55.832;49.124;2023-06-22T14:51:30;5.85;;;3.45;;
78453;SDS011;67750;55.832;49.124;2023-06-22T14:53:59;4.95;;;3.25;;
78453;SDS011;67750;55.832;49.124;2023-06-22T14:56:29;5.75;;;3.70;;
78453;SDS011;67750;55.832;49.124;2023-06-22T14:58:59;6.25;;;3.47;;
78453;SDS011;67750;55.832;49.124;2023-06-22T15:01:28;5.83;;;3.40;;
78453;SDS011;67750;55.832;49.124;2023-06-22T15:03:58;5.47;;;3.10;;
78453;SDS011;67750;55.832;49.124;2023-06-22T15:06:27;6.80;;;3.65;;
78453;SDS011;67750;55.832;49.124;2023-06-22T15:08:57;6.72;;;3.35;;
78453;SDS011;67750;55.832;49.124;2023-06-22T15:11:26;6.15;;;3.17;;
78453;SDS011;67750;55.832;49.124;2023-06-22T15:13:57;5.20;;;3.17;;
78453;SDS011;67750;55.832;49.124;2023-06-22T15:16:27;7.05;;;3.55;;
78453;SDS011;67750;55.832;49.124;2023-06-22T15:18:56;5.20;;;2.98;;
78453;SDS011;67750;55.832;49.124;2023-06-22T15:21:26;8.73;;;2.90;;
78453;SDS011;67750;55.832;49.124;2023-06-22T15:23:55;4.85;;;3.05;;
78453;SDS011;67750;55.832;49.124;2023-06-22T15:26:25;5.53;;;2.92;;